Terminal Aerodrome Forecast
Issued by NWS Dallas/Fort Worth, TX

Home | Current Version | Previous Version | Text Only | Print | Product List | Glossary On
Versions: 1 2 3 4 5 6 7 8 9 10 11 12 13 14 15 16 17 18 19 20 21 22 23 24 25 26 27 28 29 30 31 32 33 34 35 36 37 38 39 40 41
000
FTUS44 KFWD 040535
TAFDFW
TAF
KDFW 040535Z 0406/0512 04003KT 4SM BR OVC005
     FM041100 02010KT 5SM -RA BR OVC003
     FM041500 36015G25KT 3SM RA BR OVC006
     FM050000 36024G34KT 3SM -FZRA OVC007
     FM050300 36021G31KT 3SM PL OVC008
     FM050600 35021G31KT 1SM -PLSN OVC005
     FM050800 36024G34KT P6SM OVC015
     FM051000 35019KT P6SM BKN100=

USA.gov is the U.S. government's official web portal to all federal, state and local government web resources and services.